sensor_id;sensor_type;location;lat;lon;timestamp;temperature;humidity
7366;DHT22;3723;52.220;8.792;2024-02-28T00:01:09;-3.10;99.90
7366;DHT22;3723;52.220;8.792;2024-02-28T00:03:36;-3.10;99.90
7366;DHT22;3723;52.220;8.792;2024-02-28T00:06:03;-3.00;99.90
7366;DHT22;3723;52.220;8.792;2024-02-28T00:08:30;-2.90;99.90
7366;DHT22;3723;52.220;8.792;2024-02-28T00:10:59;-2.90;99.90
7366;DHT22;3723;52.220;8.792;2024-02-28T00:13:26;-2.80;99.90
7366;DHT22;3723;52.220;8.792;2024-02-28T00:15:52;-2.80;99.90
7366;DHT22;3723;52.220;8.792;2024-02-28T00:18:19;-2.80;1.00
7366;DHT22;3723;52.220;8.792;2024-02-28T00:20:46;-2.80;1.00
7366;DHT22;3723;52.220;8.792;2024-02-28T00:23:13;-2.80;1.00
7366;DHT22;3723;52.220;8.792;2024-02-28T00:25:41;-2.90;1.00
7366;DHT22;3723;52.220;8.792;2024-02-28T00:28:09;-3.00;99.90
7366;DHT22;3723;52.220;8.792;2024-02-28T00:30:37;-3.00;99.90
7366;DHT22;3723;52.220;8.792;2024-02-28T00:33:04;-3.00;99.90
7366;DHT22;3723;52.220;8.792;2024-02-28T00:35:32;-3.00;99.90
7366;DHT22;3723;52.220;8.792;2024-02-28T00:37:59;-3.10;99.90
7366;DHT22;3723;52.220;8.792;2024-02-28T00:40:26;-3.20;99.90
7366;DHT22;3723;52.220;8.792;2024-02-28T00:42:53;-3.20;99.90
7366;DHT22;3723;52.220;8.792;2024-02-28T00:45:22;-3.30;99.90
7366;DHT22;3723;52.220;8.792;2024-02-28T00:47:49;-3.30;99.90
7366;DHT22;3723;52.220;8.792;2024-02-28T00:50:16;-3.40;99.90
7366;DHT22;3723;52.220;8.792;2024-02-28T00:52:42;-3.40;99.90
7366;DHT22;3723;52.220;8.792;2024-02-28T00:55:09;-3.30;99.90
7366;DHT22;3723;52.220;8.792;2024-02-28T00:57:36;-3.40;99.90
7366;DHT22;3723;52.220;8.792;2024-02-28T01:00:04;-3.50;99.90
7366;DHT22;3723;52.220;8.792;2024-02-28T01:02:33;-3.50;99.90
7366;DHT22;3723;52.220;8.792;2024-02-28T01:05:00;-3.60;99.90
7366;DHT22;3723;52.220;8.792;2024-02-28T01:07:27;-3.60;99.90
7366;DHT22;3723;52.220;8.792;2024-02-28T01:09:55;-3.60;99.90
7366;DHT22;3723;52.220;8.792;2024-02-28T01:12:22;-3.60;99.90
7366;DHT22;3723;52.220;8.792;2024-02-28T01:14:48;-3.70;99.90
7366;DHT22;3723;52.220;8.792;2024-02-28T01:17:16;-3.70;99.90
7366;DHT22;3723;52.220;8.792;2024-02-28T01:19:45;-3.70;99.90
7366;DHT22;3723;52.220;8.792;2024-02-28T01:22:12;-3.70;99.90
7366;DHT22;3723;52.220;8.792;2024-02-28T01:24:38;-3.70;99.90
7366;DHT22;3723;52.220;8.792;2024-02-28T01:27:05;-3.70;99.90
7366;DHT22;3723;52.220;8.792;2024-02-28T01:29:32;-3.70;99.90
7366;DHT22;3723;52.220;8.792;2024-02-28T01:31:59;-3.70;99.90
7366;DHT22;3723;52.220;8.792;2024-02-28T01:34:26;-3.60;99.90
7366;DHT22;3723;52.220;8.792;2024-02-28T01:36:54;-3.70;99.90
7366;DHT22;3723;52.220;8.792;2024-02-28T01:39:21;-3.70;99.90
7366;DHT22;3723;52.220;8.792;2024-02-28T01:41:52;-3.70;99.90
7366;DHT22;3723;52.220;8.792;2024-02-28T01:44:19;-3.70;99.90
7366;DHT22;3723;52.220;8.792;2024-02-28T01:46:46;-3.70;99.90
7366;DHT22;3723;52.220;8.792;2024-02-28T01:49:26;-3.60;99.90
7366;DHT22;3723;52.220;8.792;2024-02-28T01:51:55;-3.50;99.90
7366;DHT22;3723;52.220;8.792;2024-02-28T01:54:23;-3.50;99.90
7366;DHT22;3723;52.220;8.792;2024-02-28T01:57:14;-3.40;99.90
7366;DHT22;3723;52.220;8.792;2024-02-28T01:59:42;-3.30;99.90
7366;DHT22;3723;52.220;8.792;2024-02-28T02:02:08;-3.10;99.90
7366;DHT22;3723;52.220;8.792;2024-02-28T02:04:35;-3.00;99.90
7366;DHT22;3723;52.220;8.792;2024-02-28T02:07:04;-3.00;99.90
7366;DHT22;3723;52.220;8.792;2024-02-28T02:09:31;-2.90;99.90
7366;DHT22;3723;52.220;8.792;2024-02-28T02:11:59;-3.00;99.90
7366;DHT22;3723;52.220;8.792;2024-02-28T02:14:26;-2.90;99.90
7366;DHT22;3723;52.220;8.792;2024-02-28T02:16:54;-2.90;99.90
7366;DHT22;3723;52.220;8.792;2024-02-28T02:19:21;-3.00;99.90
7366;DHT22;3723;52.220;8.792;2024-02-28T02:21:50;-3.00;99.90
7366;DHT22;3723;52.220;8.792;2024-02-28T02:24:20;-2.90;99.90
7366;DHT22;3723;52.220;8.792;2024-02-28T02:26:47;-2.80;99.90
7366;DHT22;3723;52.220;8.792;2024-02-28T02:29:17;-2.70;99.90
7366;DHT22;3723;52.220;8.792;2024-02-28T02:31:44;-2.60;99.90
7366;DHT22;3723;52.220;8.792;2024-02-28T02:34:11;-2.50;99.90
7366;DHT22;3723;52.220;8.792;2024-02-28T02:36:38;-2.40;99.90
7366;DHT22;3723;52.220;8.792;2024-02-28T02:39:05;-2.30;99.90
7366;DHT22;3723;52.220;8.792;2024-02-28T02:41:34;-2.20;99.90
7366;DHT22;3723;52.220;8.792;2024-02-28T02:44:01;-2.10;99.90
7366;DHT22;3723;52.220;8.792;2024-02-28T02:46:28;-2.00;99.90
7366;DHT22;3723;52.220;8.792;2024-02-28T02:48:55;-1.90;99.90
7366;DHT22;3723;52.220;8.792;2024-02-28T02:51:22;-1.90;99.90
7366;DHT22;3723;52.220;8.792;2024-02-28T02:53:49;-1.80;99.90
7366;DHT22;3723;52.220;8.792;2024-02-28T02:56:16;-1.80;99.90
7366;DHT22;3723;52.220;8.792;2024-02-28T02:58:44;-1.70;99.90
7366;DHT22;3723;52.220;8.792;2024-02-28T03:01:11;-1.70;99.90
7366;DHT22;3723;52.220;8.792;2024-02-28T03:03:39;-1.70;99.90
7366;DHT22;3723;52.220;8.792;2024-02-28T03:06:06;-1.60;99.90
7366;DHT22;3723;52.220;8.792;2024-02-28T03:08:33;-1.60;99.90
7366;DHT22;3723;52.220;8.792;2024-02-28T03:11:01;-1.60;99.90
7366;DHT22;3723;52.220;8.792;2024-02-28T03:13:29;-1.50;99.90
7366;DHT22;3723;52.220;8.792;2024-02-28T03:15:58;-1.50;99.90
7366;DHT22;3723;52.220;8.792;2024-02-28T03:18:25;-1.50;99.90
7366;DHT22;3723;52.220;8.792;2024-02-28T03:20:52;-1.50;99.90
7366;DHT22;3723;52.220;8.792;2024-02-28T03:23:19;-1.50;99.90
7366;DHT22;3723;52.220;8.792;2024-02-28T03:25:46;-1.50;99.90
7366;DHT22;3723;52.220;8.792;2024-02-28T03:28:13;-1.50;99.90
7366;DHT22;3723;52.220;8.792;2024-02-28T03:30:40;-1.60;99.90
7366;DHT22;3723;52.220;8.792;2024-02-28T03:33:09;-1.60;99.90
7366;DHT22;3723;52.220;8.792;2024-02-28T03:35:35;-1.70;99.90
7366;DHT22;3723;52.220;8.792;2024-02-28T03:38:03;-1.70;99.90
7366;DHT22;3723;52.220;8.792;2024-02-28T03:40:29;-1.80;99.90
7366;DHT22;3723;52.220;8.792;2024-02-28T03:42:58;-1.80;99.90
7366;DHT22;3723;52.220;8.792;2024-02-28T03:45:27;-1.80;99.90
7366;DHT22;3723;52.220;8.792;2024-02-28T03:47:54;-1.90;99.90
7366;DHT22;3723;52.220;8.792;2024-02-28T03:50:22;-1.90;99.90
7366;DHT22;3723;52.220;8.792;2024-02-28T03:52:49;-1.90;99.90
7366;DHT22;3723;52.220;8.792;2024-02-28T03:55:16;-1.80;99.90
7366;DHT22;3723;52.220;8.792;2024-02-28T03:57:47;-1.80;1.00
7366;DHT22;3723;52.220;8.792;2024-02-28T04:00:15;-1.80;1.00
7366;DHT22;3723;52.220;8.792;2024-02-28T04:02:42;-1.80;1.00
7366;DHT22;3723;52.220;8.792;2024-02-28T04:05:09;-1.80;1.00
7366;DHT22;3723;52.220;8.792;2024-02-28T04:07:38;-1.80;1.00
7366;DHT22;3723;52.220;8.792;2024-02-28T04:10:06;-1.80;1.00
7366;DHT22;3723;52.220;8.792;2024-02-28T04:12:33;-1.80;1.00
7366;DHT22;3723;52.220;8.792;2024-02-28T04:15:00;-1.80;1.00
7366;DHT22;3723;52.220;8.792;2024-02-28T04:17:28;-1.70;1.00
7366;DHT22;3723;52.220;8.792;2024-02-28T04:19:55;-1.80;1.00
7366;DHT22;3723;52.220;8.792;2024-02-28T04:22:23;-1.80;1.00
7366;DHT22;3723;52.220;8.792;2024-02-28T04:24:52;-1.80;1.00
7366;DHT22;3723;52.220;8.792;2024-02-28T04:27:19;-1.70;1.00
7366;DHT22;3723;52.220;8.792;2024-02-28T04:29:46;-1.80;1.00
7366;DHT22;3723;52.220;8.792;2024-02-28T04:32:13;-1.80;1.00
7366;DHT22;3723;52.220;8.792;2024-02-28T04:34:40;-1.70;1.00
7366;DHT22;3723;52.220;8.792;2024-02-28T04:37:07;-1.70;1.00
7366;DHT22;3723;52.220;8.792;2024-02-28T04:39:34;-1.70;1.00
7366;DHT22;3723;52.220;8.792;2024-02-28T04:42:02;-1.70;1.00
7366;DHT22;3723;52.220;8.792;2024-02-28T04:44:30;-1.70;1.00
7366;DHT22;3723;52.220;8.792;2024-02-28T04:46:57;-1.70;1.00
7366;DHT22;3723;52.220;8.792;2024-02-28T04:49:24;-1.70;1.00
7366;DHT22;3723;52.220;8.792;2024-02-28T04:51:51;-1.70;1.00
7366;DHT22;3723;52.220;8.792;2024-02-28T04:54:18;-1.80;1.00
7366;DHT22;3723;52.220;8.792;2024-02-28T04:56:45;-1.80;1.00
7366;DHT22;3723;52.220;8.792;2024-02-28T04:59:14;-1.90;1.00
7366;DHT22;3723;52.220;8.792;2024-02-28T05:01:40;-1.90;1.00
7366;DHT22;3723;52.220;8.792;2024-02-28T05:04:09;-1.90;1.00
7366;DHT22;3723;52.220;8.792;2024-02-28T05:06:35;-1.90;1.00
7366;DHT22;3723;52.220;8.792;2024-02-28T05:09:02;-1.90;1.00
7366;DHT22;3723;52.220;8.792;2024-02-28T05:11:30;-1.90;1.00
7366;DHT22;3723;52.220;8.792;2024-02-28T05:13:56;-1.90;1.00
7366;DHT22;3723;52.220;8.792;2024-02-28T05:16:24;-1.90;1.00
7366;DHT22;3723;52.220;8.792;2024-02-28T05:18:51;-1.90;1.00
7366;DHT22;3723;52.220;8.792;2024-02-28T05:21:18;-1.90;1.00
7366;DHT22;3723;52.220;8.792;2024-02-28T05:23:45;-1.80;1.00
7366;DHT22;3723;52.220;8.792;2024-02-28T05:26:12;-1.80;1.00
7366;DHT22;3723;52.220;8.792;2024-02-28T05:28:43;-1.80;1.00
7366;DHT22;3723;52.220;8.792;2024-02-28T05:31:21;-1.80;1.00
7366;DHT22;3723;52.220;8.792;2024-02-28T05:33:50;-1.70;1.00
7366;DHT22;3723;52.220;8.792;2024-02-28T05:36:18;-1.70;1.00
7366;DHT22;3723;52.220;8.792;2024-02-28T05:38:45;-1.70;1.00
7366;DHT22;3723;52.220;8.792;2024-02-28T05:41:13;-1.70;1.00
7366;DHT22;3723;52.220;8.792;2024-02-28T05:43:40;-1.60;1.00
7366;DHT22;3723;52.220;8.792;2024-02-28T05:46:07;-1.60;1.00
7366;DHT22;3723;52.220;8.792;2024-02-28T05:48:35;-1.60;1.00
7366;DHT22;3723;52.220;8.792;2024-02-28T05:51:03;-1.50;7.10
7366;DHT22;3723;52.220;8.792;2024-02-28T05:53:31;-1.50;18.00
7366;DHT22;3723;52.220;8.792;2024-02-28T05:56:01;-1.50;26.30
7366;DHT22;3723;52.220;8.792;2024-02-28T05:58:28;-1.50;33.40
7366;DHT22;3723;52.220;8.792;2024-02-28T06:00:55;-1.40;38.00
7366;DHT22;3723;52.220;8.792;2024-02-28T06:03:22;-1.40;38.10
7366;DHT22;3723;52.220;8.792;2024-02-28T06:05:49;-1.40;43.60
7366;DHT22;3723;52.220;8.792;2024-02-28T06:08:17;-1.30;49.60
7366;DHT22;3723;52.220;8.792;2024-02-28T06:10:44;-1.40;58.60
7366;DHT22;3723;52.220;8.792;2024-02-28T06:13:12;-1.40;71.20
7366;DHT22;3723;52.220;8.792;2024-02-28T06:15:40;-1.30;84.60
7366;DHT22;3723;52.220;8.792;2024-02-28T06:18:08;-1.30;91.20
7366;DHT22;3723;52.220;8.792;2024-02-28T06:20:35;-1.30;97.70
7366;DHT22;3723;52.220;8.792;2024-02-28T06:23:02;-1.30;99.90
7366;DHT22;3723;52.220;8.792;2024-02-28T06:25:30;-1.20;99.90
7366;DHT22;3723;52.220;8.792;2024-02-28T06:27:59;-1.20;99.90
7366;DHT22;3723;52.220;8.792;2024-02-28T06:30:28;-1.20;99.90
7366;DHT22;3723;52.220;8.792;2024-02-28T06:32:54;-1.10;99.90
7366;DHT22;3723;52.220;8.792;2024-02-28T06:35:21;-1.10;99.90
7366;DHT22;3723;52.220;8.792;2024-02-28T06:37:48;-1.10;99.90
7366;DHT22;3723;52.220;8.792;2024-02-28T06:40:16;-1.00;99.90
7366;DHT22;3723;52.220;8.792;2024-02-28T06:42:43;-1.00;99.90
7366;DHT22;3723;52.220;8.792;2024-02-28T06:45:10;-1.00;99.90
7366;DHT22;3723;52.220;8.792;2024-02-28T06:47:37;-0.90;99.90
7366;DHT22;3723;52.220;8.792;2024-02-28T06:50:06;-0.80;99.90
7366;DHT22;3723;52.220;8.792;2024-02-28T06:52:34;-0.80;99.90
7366;DHT22;3723;52.220;8.792;2024-02-28T06:55:01;-0.70;99.90
7366;DHT22;3723;52.220;8.792;2024-02-28T06:57:32;-0.60;99.90
7366;DHT22;3723;52.220;8.792;2024-02-28T07:00:00;-0.60;99.90
7366;DHT22;3723;52.220;8.792;2024-02-28T07:02:27;-0.50;99.90
7366;DHT22;3723;52.220;8.792;2024-02-28T07:04:54;-0.50;99.90
7366;DHT22;3723;52.220;8.792;2024-02-28T07:07:21;-0.40;99.90
7366;DHT22;3723;52.220;8.792;2024-02-28T07:09:48;-0.30;99.90
7366;DHT22;3723;52.220;8.792;2024-02-28T07:12:15;-0.30;99.90
7366;DHT22;3723;52.220;8.792;2024-02-28T07:14:43;-0.20;99.90
7366;DHT22;3723;52.220;8.792;2024-02-28T07:17:11;-0.20;99.90
7366;DHT22;3723;52.220;8.792;2024-02-28T07:19:38;-0.10;99.90
7366;DHT22;3723;52.220;8.792;2024-02-28T07:22:05;-0.10;99.90
7366;DHT22;3723;52.220;8.792;2024-02-28T07:24:32;-0.10;99.90
7366;DHT22;3723;52.220;8.792;2024-02-28T07:26:58;-0.10;99.90
7366;DHT22;3723;52.220;8.792;2024-02-28T07:29:25;0.00;99.90
7366;DHT22;3723;52.220;8.792;2024-02-28T07:31:52;0.00;99.90
7366;DHT22;3723;52.220;8.792;2024-02-28T07:34:20;0.00;99.90
7366;DHT22;3723;52.220;8.792;2024-02-28T07:36:47;0.00;99.90
7366;DHT22;3723;52.220;8.792;2024-02-28T07:39:14;0.00;99.90
7366;DHT22;3723;52.220;8.792;2024-02-28T07:41:40;0.10;99.90
7366;DHT22;3723;52.220;8.792;2024-02-28T07:44:08;0.00;99.90
7366;DHT22;3723;52.220;8.792;2024-02-28T07:46:35;0.00;99.90
7366;DHT22;3723;52.220;8.792;2024-02-28T07:49:02;0.10;99.90
7366;DHT22;3723;52.220;8.792;2024-02-28T07:51:31;0.10;99.90
7366;DHT22;3723;52.220;8.792;2024-02-28T07:53:58;0.10;99.90
7366;DHT22;3723;52.220;8.792;2024-02-28T07:56:25;0.20;99.90
7366;DHT22;3723;52.220;8.792;2024-02-28T07:58:52;0.30;99.90
7366;DHT22;3723;52.220;8.792;2024-02-28T08:01:19;0.40;99.90
7366;DHT22;3723;52.220;8.792;2024-02-28T08:03:47;0.60;99.90
7366;DHT22;3723;52.220;8.792;2024-02-28T08:06:14;0.70;99.90
7366;DHT22;3723;52.220;8.792;2024-02-28T08:08:45;0.90;99.90
7366;DHT22;3723;52.220;8.792;2024-02-28T08:11:12;1.10;99.90
7366;DHT22;3723;52.220;8.792;2024-02-28T08:13:38;1.30;99.90
7366;DHT22;3723;52.220;8.792;2024-02-28T08:16:05;1.40;99.90
7366;DHT22;3723;52.220;8.792;2024-02-28T08:18:34;1.50;99.90
7366;DHT22;3723;52.220;8.792;2024-02-28T08:21:01;1.60;99.90
7366;DHT22;3723;52.220;8.792;2024-02-28T08:23:29;1.70;99.90
7366;DHT22;3723;52.220;8.792;2024-02-28T08:25:57;1.80;99.90
7366;DHT22;3723;52.220;8.792;2024-02-28T08:28:25;1.80;99.90
7366;DHT22;3723;52.220;8.792;2024-02-28T08:30:52;1.90;99.90
7366;DHT22;3723;52.220;8.792;2024-02-28T08:33:19;1.90;99.90
7366;DHT22;3723;52.220;8.792;2024-02-28T08:35:45;1.90;99.90
7366;DHT22;3723;52.220;8.792;2024-02-28T08:38:18;1.90;99.90
7366;DHT22;3723;52.220;8.792;2024-02-28T08:40:45;1.90;99.90
7366;DHT22;3723;52.220;8.792;2024-02-28T08:43:14;1.90;99.90
7366;DHT22;3723;52.220;8.792;2024-02-28T08:45:43;2.00;99.90
7366;DHT22;3723;52.220;8.792;2024-02-28T08:48:10;2.00;99.90
7366;DHT22;3723;52.220;8.792;2024-02-28T08:50:36;2.00;99.90
7366;DHT22;3723;52.220;8.792;2024-02-28T08:53:03;2.00;99.90
7366;DHT22;3723;52.220;8.792;2024-02-28T08:55:30;2.10;99.90
7366;DHT22;3723;52.220;8.792;2024-02-28T08:57:57;2.10;99.90
7366;DHT22;3723;52.220;8.792;2024-02-28T09:00:25;2.10;99.90
7366;DHT22;3723;52.220;8.792;2024-02-28T09:02:52;2.10;99.90
7366;DHT22;3723;52.220;8.792;2024-02-28T09:05:19;2.20;1.00
7366;DHT22;3723;52.220;8.792;2024-02-28T09:07:46;2.40;1.00
7366;DHT22;3723;52.220;8.792;2024-02-28T09:10:21;2.50;1.00
7366;DHT22;3723;52.220;8.792;2024-02-28T09:12:49;2.50;1.00
7366;DHT22;3723;52.220;8.792;2024-02-28T09:15:16;2.50;1.00
7366;DHT22;3723;52.220;8.792;2024-02-28T09:17:44;2.50;1.00
7366;DHT22;3723;52.220;8.792;2024-02-28T09:20:12;2.50;1.00
7366;DHT22;3723;52.220;8.792;2024-02-28T09:22:39;2.60;1.00
7366;DHT22;3723;52.220;8.792;2024-02-28T09:25:06;2.60;1.00
7366;DHT22;3723;52.220;8.792;2024-02-28T09:27:34;2.70;1.00
7366;DHT22;3723;52.220;8.792;2024-02-28T09:30:02;2.80;1.00
7366;DHT22;3723;52.220;8.792;2024-02-28T09:32:29;2.90;1.00
7366;DHT22;3723;52.220;8.792;2024-02-28T09:34:57;3.10;1.00
7366;DHT22;3723;52.220;8.792;2024-02-28T09:37:24;3.10;1.00
7366;DHT22;3723;52.220;8.792;2024-02-28T09:39:51;3.20;1.00
7366;DHT22;3723;52.220;8.792;2024-02-28T09:42:18;3.20;1.00
7366;DHT22;3723;52.220;8.792;2024-02-28T09:44:45;3.20;1.00
7366;DHT22;3723;52.220;8.792;2024-02-28T09:47:13;3.20;1.00
7366;DHT22;3723;52.220;8.792;2024-02-28T09:49:42;3.20;1.00
7366;DHT22;3723;52.220;8.792;2024-02-28T09:52:10;3.40;1.00
7366;DHT22;3723;52.220;8.792;2024-02-28T09:54:37;3.50;1.00
7366;DHT22;3723;52.220;8.792;2024-02-28T09:57:04;3.70;1.00
7366;DHT22;3723;52.220;8.792;2024-02-28T09:59:33;3.70;1.00
7366;DHT22;3723;52.220;8.792;2024-02-28T10:02:02;3.70;1.00
7366;DHT22;3723;52.220;8.792;2024-02-28T10:04:29;3.70;1.00
7366;DHT22;3723;52.220;8.792;2024-02-28T10:06:56;3.70;1.00
7366;DHT22;3723;52.220;8.792;2024-02-28T10:09:25;3.70;1.00
7366;DHT22;3723;52.220;8.792;2024-02-28T10:11:52;3.70;1.00
7366;DHT22;3723;52.220;8.792;2024-02-28T10:14:21;3.70;1.00
7366;DHT22;3723;52.220;8.792;2024-02-28T10:16:48;3.70;1.00
7366;DHT22;3723;52.220;8.792;2024-02-28T10:19:15;3.80;1.00
7366;DHT22;3723;52.220;8.792;2024-02-28T10:21:42;3.90;1.00
7366;DHT22;3723;52.220;8.792;2024-02-28T10:24:11;3.90;1.00
7366;DHT22;3723;52.220;8.792;2024-02-28T10:26:44;4.00;1.00
7366;DHT22;3723;52.220;8.792;2024-02-28T10:29:11;4.10;1.00
7366;DHT22;3723;52.220;8.792;2024-02-28T10:31:38;4.30;1.00
7366;DHT22;3723;52.220;8.792;2024-02-28T10:34:09;4.40;1.00
7366;DHT22;3723;52.220;8.792;2024-02-28T10:36:36;4.50;1.00
7366;DHT22;3723;52.220;8.792;2024-02-28T10:39:04;4.50;1.00
7366;DHT22;3723;52.220;8.792;2024-02-28T10:41:33;4.40;1.00
7366;DHT22;3723;52.220;8.792;2024-02-28T10:44:01;4.50;1.00
7366;DHT22;3723;52.220;8.792;2024-02-28T10:46:29;4.60;1.00
7366;DHT22;3723;52.220;8.792;2024-02-28T10:48:57;4.70;1.00
7366;DHT22;3723;52.220;8.792;2024-02-28T10:51:24;4.80;1.00
7366;DHT22;3723;52.220;8.792;2024-02-28T10:53:59;4.80;1.00
7366;DHT22;3723;52.220;8.792;2024-02-28T10:56:29;4.90;1.00
7366;DHT22;3723;52.220;8.792;2024-02-28T10:58:59;5.10;1.00
7366;DHT22;3723;52.220;8.792;2024-02-28T11:01:27;5.20;1.00
7366;DHT22;3723;52.220;8.792;2024-02-28T11:03:55;5.30;1.00
7366;DHT22;3723;52.220;8.792;2024-02-28T11:06:22;5.30;1.00
7366;DHT22;3723;52.220;8.792;2024-02-28T11:08:51;5.30;1.00
7366;DHT22;3723;52.220;8.792;2024-02-28T11:11:20;5.40;1.00
7366;DHT22;3723;52.220;8.792;2024-02-28T11:13:54;5.30;99.90
7366;DHT22;3723;52.220;8.792;2024-02-28T11:16:29;5.40;99.90
7366;DHT22;3723;52.220;8.792;2024-02-28T11:18:57;5.50;99.90
7366;DHT22;3723;52.220;8.792;2024-02-28T11:21:24;5.50;99.90
7366;DHT22;3723;52.220;8.792;2024-02-28T11:23:52;5.50;1.00
7366;DHT22;3723;52.220;8.792;2024-02-28T11:26:19;5.60;1.00
7366;DHT22;3723;52.220;8.792;2024-02-28T11:28:47;5.90;1.00
7366;DHT22;3723;52.220;8.792;2024-02-28T11:31:14;6.10;1.00
7366;DHT22;3723;52.220;8.792;2024-02-28T11:33:42;6.20;99.90
7366;DHT22;3723;52.220;8.792;2024-02-28T11:36:11;6.30;99.90
7366;DHT22;3723;52.220;8.792;2024-02-28T11:38:38;6.30;1.00
7366;DHT22;3723;52.220;8.792;2024-02-28T11:41:05;6.30;1.00
7366;DHT22;3723;52.220;8.792;2024-02-28T11:43:33;6.20;1.00
7366;DHT22;3723;52.220;8.792;2024-02-28T11:46:01;6.30;1.00
7366;DHT22;3723;52.220;8.792;2024-02-28T11:48:28;6.40;1.00
7366;DHT22;3723;52.220;8.792;2024-02-28T11:50:57;6.60;1.00
7366;DHT22;3723;52.220;8.792;2024-02-28T12:18:08;7.00;1.00
7366;DHT22;3723;52.220;8.792;2024-02-28T12:20:36;7.10;1.00
7366;DHT22;3723;52.220;8.792;2024-02-28T12:23:09;7.10;1.00
7366;DHT22;3723;52.220;8.792;2024-02-28T12:25:38;7.00;1.00
7366;DHT22;3723;52.220;8.792;2024-02-28T12:28:05;6.90;1.00
7366;DHT22;3723;52.220;8.792;2024-02-28T12:30:39;6.90;1.00
7366;DHT22;3723;52.220;8.792;2024-02-28T12:33:07;7.10;1.00
7366;DHT22;3723;52.220;8.792;2024-02-28T12:35:35;7.10;1.00
7366;DHT22;3723;52.220;8.792;2024-02-28T12:38:02;7.20;1.00
7366;DHT22;3723;52.220;8.792;2024-02-28T12:40:29;7.30;1.00
7366;DHT22;3723;52.220;8.792;2024-02-28T12:42:58;7.20;1.00
7366;DHT22;3723;52.220;8.792;2024-02-28T12:45:25;7.10;1.00
7366;DHT22;3723;52.220;8.792;2024-02-28T12:47:52;7.00;1.00
7366;DHT22;3723;52.220;8.792;2024-02-28T12:50:22;7.00;1.00
7366;DHT22;3723;52.220;8.792;2024-02-28T12:52:50;7.00;1.00
7366;DHT22;3723;52.220;8.792;2024-02-28T12:55:19;7.00;1.00
7366;DHT22;3723;52.220;8.792;2024-02-28T12:57:49;7.00;1.00
7366;DHT22;3723;52.220;8.792;2024-02-28T13:00:18;6.90;1.00
7366;DHT22;3723;52.220;8.792;2024-02-28T13:02:46;6.90;1.00
7366;DHT22;3723;52.220;8.792;2024-02-28T13:05:13;6.90;1.00
7366;DHT22;3723;52.220;8.792;2024-02-28T13:07:40;6.80;1.00
7366;DHT22;3723;52.220;8.792;2024-02-28T13:10:08;6.90;1.00
7366;DHT22;3723;52.220;8.792;2024-02-28T13:12:35;6.90;1.00
7366;DHT22;3723;52.220;8.792;2024-02-28T13:15:05;6.90;1.00
7366;DHT22;3723;52.220;8.792;2024-02-28T13:17:34;6.80;1.00
7366;DHT22;3723;52.220;8.792;2024-02-28T13:20:01;6.90;1.00
7366;DHT22;3723;52.220;8.792;2024-02-28T13:22:29;7.00;1.00
7366;DHT22;3723;52.220;8.792;2024-02-28T13:24:56;7.20;1.00
7366;DHT22;3723;52.220;8.792;2024-02-28T13:27:26;7.30;1.00
7366;DHT22;3723;52.220;8.792;2024-02-28T13:29:53;7.50;1.00
7366;DHT22;3723;52.220;8.792;2024-02-28T13:32:20;7.50;1.00
7366;DHT22;3723;52.220;8.792;2024-02-28T13:34:48;7.60;1.00
7366;DHT22;3723;52.220;8.792;2024-02-28T13:37:16;7.70;1.00
7366;DHT22;3723;52.220;8.792;2024-02-28T13:39:43;7.70;1.00
7366;DHT22;3723;52.220;8.792;2024-02-28T13:42:11;7.80;1.00
7366;DHT22;3723;52.220;8.792;2024-02-28T13:44:39;7.80;1.00
7366;DHT22;3723;52.220;8.792;2024-02-28T13:47:06;7.90;1.00
7366;DHT22;3723;52.220;8.792;2024-02-28T13:49:33;7.90;1.00
7366;DHT22;3723;52.220;8.792;2024-02-28T13:52:01;7.90;1.00
7366;DHT22;3723;52.220;8.792;2024-02-28T13:54:28;8.00;1.00
7366;DHT22;3723;52.220;8.792;2024-02-28T13:56:57;8.00;1.00
7366;DHT22;3723;52.220;8.792;2024-02-28T13:59:24;8.00;99.90
7366;DHT22;3723;52.220;8.792;2024-02-28T14:01:52;8.00;99.90
7366;DHT22;3723;52.220;8.792;2024-02-28T14:04:19;8.20;99.90
7366;DHT22;3723;52.220;8.792;2024-02-28T14:06:50;8.50;99.90
7366;DHT22;3723;52.220;8.792;2024-02-28T14:09:20;8.80;99.90
7366;DHT22;3723;52.220;8.792;2024-02-28T14:11:48;9.10;99.90
7366;DHT22;3723;52.220;8.792;2024-02-28T14:14:15;9.40;99.90
7366;DHT22;3723;52.220;8.792;2024-02-28T14:16:42;9.60;99.90
7366;DHT22;3723;52.220;8.792;2024-02-28T14:19:09;9.70;99.90
7366;DHT22;3723;52.220;8.792;2024-02-28T14:21:36;9.80;99.90
7366;DHT22;3723;52.220;8.792;2024-02-28T14:24:04;9.70;99.90
7366;DHT22;3723;52.220;8.792;2024-02-28T14:26:34;9.40;99.90
7366;DHT22;3723;52.220;8.792;2024-02-28T14:29:02;9.10;99.90
7366;DHT22;3723;52.220;8.792;2024-02-28T14:31:30;8.80;99.90
7366;DHT22;3723;52.220;8.792;2024-02-28T14:33:58;8.60;99.90
7366;DHT22;3723;52.220;8.792;2024-02-28T14:36:25;8.50;99.90
7366;DHT22;3723;52.220;8.792;2024-02-28T14:38:52;8.40;99.90
7366;DHT22;3723;52.220;8.792;2024-02-28T14:41:22;8.40;99.90
7366;DHT22;3723;52.220;8.792;2024-02-28T14:44:05;8.40;99.90
7366;DHT22;3723;52.220;8.792;2024-02-28T14:46:32;8.30;99.90
7366;DHT22;3723;52.220;8.792;2024-02-28T14:48:59;8.30;99.90
7366;DHT22;3723;52.220;8.792;2024-02-28T14:51:26;8.30;99.90
7366;DHT22;3723;52.220;8.792;2024-02-28T14:53:54;8.30;99.90
7366;DHT22;3723;52.220;8.792;2024-02-28T14:56:21;8.20;99.90
7366;DHT22;3723;52.220;8.792;2024-02-28T14:58:48;8.00;99.90
7366;DHT22;3723;52.220;8.792;2024-02-28T15:01:17;8.00;99.90
7366;DHT22;3723;52.220;8.792;2024-02-28T15:03:44;7.90;99.90
7366;DHT22;3723;52.220;8.792;2024-02-28T15:06:14;7.80;99.90
7366;DHT22;3723;52.220;8.792;2024-02-28T15:08:41;7.70;99.90
7366;DHT22;3723;52.220;8.792;2024-02-28T15:11:08;7.50;99.90
7366;DHT22;3723;52.220;8.792;2024-02-28T15:13:35;7.40;99.90
7366;DHT22;3723;52.220;8.792;2024-02-28T15:16:02;7.20;99.90
7366;DHT22;3723;52.220;8.792;2024-02-28T15:18:30;7.10;99.90
7366;DHT22;3723;52.220;8.792;2024-02-28T15:20:57;7.00;99.90
7366;DHT22;3723;52.220;8.792;2024-02-28T15:23:24;6.90;99.90
7366;DHT22;3723;52.220;8.792;2024-02-28T15:25:51;6.80;99.90
7366;DHT22;3723;52.220;8.792;2024-02-28T15:28:19;6.70;99.90
7366;DHT22;3723;52.220;8.792;2024-02-28T15:30:47;6.50;99.90
7366;DHT22;3723;52.220;8.792;2024-02-28T15:33:13;6.40;99.90
7366;DHT22;3723;52.220;8.792;2024-02-28T15:35:42;6.30;99.90
7366;DHT22;3723;52.220;8.792;2024-02-28T15:38:08;6.20;99.90
7366;DHT22;3723;52.220;8.792;2024-02-28T15:40:35;6.10;99.90
7366;DHT22;3723;52.220;8.792;2024-02-28T15:43:03;6.10;99.90
7366;DHT22;3723;52.220;8.792;2024-02-28T15:45:31;5.90;99.90
7366;DHT22;3723;52.220;8.792;2024-02-28T15:47:58;5.90;99.90
7366;DHT22;3723;52.220;8.792;2024-02-28T15:50:26;5.80;99.90
7366;DHT22;3723;52.220;8.792;2024-02-28T15:52:55;5.70;99.90
7366;DHT22;3723;52.220;8.792;2024-02-28T15:55:22;5.70;99.90
7366;DHT22;3723;52.220;8.792;2024-02-28T15:57:49;5.60;99.90
7366;DHT22;3723;52.220;8.792;2024-02-28T16:00:16;5.50;99.90
7366;DHT22;3723;52.220;8.792;2024-02-28T16:02:43;5.50;99.90
7366;DHT22;3723;52.220;8.792;2024-02-28T16:05:10;5.40;99.90
7366;DHT22;3723;52.220;8.792;2024-02-28T16:07:40;5.40;99.90
7366;DHT22;3723;52.220;8.792;2024-02-28T16:10:09;5.30;99.90
7366;DHT22;3723;52.220;8.792;2024-02-28T16:12:36;5.20;99.90
7366;DHT22;3723;52.220;8.792;2024-02-28T16:15:04;5.20;99.90
7366;DHT22;3723;52.220;8.792;2024-02-28T16:17:33;5.10;99.90
7366;DHT22;3723;52.220;8.792;2024-02-28T16:20:00;5.00;99.90
7366;DHT22;3723;52.220;8.792;2024-02-28T16:22:28;4.90;99.90
7366;DHT22;3723;52.220;8.792;2024-02-28T16:24:54;4.80;99.90
7366;DHT22;3723;52.220;8.792;2024-02-28T16:27:23;4.80;99.90
7366;DHT22;3723;52.220;8.792;2024-02-28T16:29:50;4.60;99.90
7366;DHT22;3723;52.220;8.792;2024-02-28T16:32:17;4.50;99.90
7366;DHT22;3723;52.220;8.792;2024-02-28T16:34:44;4.50;99.90
7366;DHT22;3723;52.220;8.792;2024-02-28T16:37:12;4.40;99.90
7366;DHT22;3723;52.220;8.792;2024-02-28T16:39:39;4.30;99.90
7366;DHT22;3723;52.220;8.792;2024-02-28T16:42:06;4.20;99.90
7366;DHT22;3723;52.220;8.792;2024-02-28T16:44:35;4.20;99.90